KGYY/GYY METAR and TAF weather

Enter ICAO airport designator
Station Type Date Time Source
KGYY METAR 2020/06/03 21:45 UTC NOAA

KGYY 032145Z 00000KT 10SM SCT100 BKN150 28/13 A2981


Station Type Date Time Source
KGYY Decoded METAR 2020/06/03 21:45 UTC NOAA

Gary Regional, IN, United States (KGYY) 41-37N 087-25W
Jun 03, 2020 - 05:45 PM EDT / 2020.06.03 2145 UTC
Wind: Calm:0
Visibility: 10 mile(s):0
Sky conditions: mostly cloudy
Temperature: 82 F (28 C)
Dew Point: 55 F (13 C)
Relative Humidity: 39%
Pressure (altimeter): 29.81 in. Hg (1009 hPa)
ob: KGYY 032145Z 00000KT 10SM SCT100 BKN150 28/13 A2981
cycle: 22

Station Type Date Time Source
KGYY TAF 2020/06/03 21:03 UTC NOAA

TAF
AMD KGYY 032100Z 0321/0418 03008KT P6SM SCT080 BKN250
FM040100 VRB04KT P6SM SCT250
TEMPO 0409/0412 2SM BR

Example: see airport list